Time;durP1;ratioP1;P1;durP2;ratioP2;P2;SDS_P1;SDS_P2;PMS_P1;PMS_P2;Temp;Humidity;BMP_temperature;BMP_pressure;BME280_temperature;BME280_humidity;BME280_pressure;Samples;Min_cycle;Max_cycle;Signal;HPM_P1;HPM_P2
2024/01/11 00:01:20;;;;;;;40.08;26.00;;;;;;;-2.17;57.41;101307.22;4375508;32;20165;-74
2024/01/11 00:03:50;;;;;;;39.42;26.80;;;;;;;-2.54;58.70;101310.44;4375700;32;20161;-73
2024/01/11 00:06:19;;;;;;;36.30;24.23;;;;;;;-2.55;58.58;101311.31;4375647;32;20153;-74
2024/01/11 00:08:49;;;;;;;39.15;24.98;;;;;;;-2.31;58.02;101310.59;4375179;32;20564;-74
2024/01/11 00:11:19;;;;;;;32.13;22.37;;;;;;;-2.26;57.80;101315.81;4375957;32;20173;-74
2024/01/11 00:13:50;;;;;;;36.67;25.55;;;;;;;-2.87;59.01;101317.97;4375514;32;20141;-74
2024/01/11 00:16:20;;;;;;;36.63;25.23;;;;;;;-2.95;59.67;101317.03;4375464;32;20166;-74
2024/01/11 00:18:49;;;;;;;38.53;25.60;;;;;;;-2.87;59.44;101310.19;4375379;32;20153;-74
2024/01/11 00:21:20;;;;;;;35.97;24.90;;;;;;;-2.83;59.26;101312.81;4374180;32;20185;-74
2024/01/11 00:23:50;;;;;;;42.83;25.52;;;;;;;-3.23;60.18;101314.19;4375073;32;20149;-73
2024/01/11 00:26:20;;;;;;;32.90;24.65;;;;;;;-3.04;59.67;101305.75;4374983;32;20538;-74
2024/01/11 00:28:50;;;;;;;41.40;25.90;;;;;;;-3.32;60.44;101299.44;4375488;32;20153;-73
2024/01/11 00:31:20;;;;;;;37.70;25.45;;;;;;;-2.90;59.49;101299.78;4375143;32;20142;-73
2024/01/11 00:33:49;;;;;;;43.38;28.27;;;;;;;-2.81;59.16;101295.56;4375205;32;20146;-73
2024/01/11 00:36:20;;;;;;;39.15;27.95;;;;;;;-2.75;58.99;101302.50;4375056;32;20181;-74
2024/01/11 00:38:48;;;;;;;36.47;27.73;;;;;;;-2.77;58.96;101296.47;4375118;32;20181;-74
2024/01/11 00:41:18;;;;;;;40.65;28.87;;;;;;;-2.89;59.06;101297.22;4375315;32;20197;-74
2024/01/11 00:43:47;;;;;;;49.08;32.63;;;;;;;-2.80;58.93;101289.50;4375102;32;20170;-73
2024/01/11 00:46:23;;;;;;;43.53;29.65;;;;;;;-2.73;58.72;101291.31;4373688;32;20158;-73
2024/01/11 00:48:53;;;;;;;45.28;29.67;;;;;;;-2.58;58.32;101276.69;4375441;32;20157;-73
2024/01/11 00:51:27;;;;;;;43.13;31.23;;;;;;;-2.67;58.26;101285.28;4375142;32;20158;-73
2024/01/11 00:53:57;;;;;;;43.58;29.63;;;;;;;-3.08;59.50;101282.38;4375504;32;20177;-73
2024/01/11 00:56:26;;;;;;;39.28;30.10;;;;;;;-3.01;59.47;101276.34;4375007;32;20460;-73
2024/01/11 00:58:55;;;;;;;43.15;29.37;;;;;;;-3.28;60.01;101266.66;4375919;32;20166;-73
2024/01/11 01:01:30;;;;;;;40.53;27.35;;;;;;;-2.94;59.22;101277.28;4375265;32;20451;-73
2024/01/11 01:04:05;;;;;;;39.78;26.62;;;;;;;-3.25;59.84;101270.13;4374902;32;20443;-74
2024/01/11 01:06:35;;;;;;;43.35;28.25;;;;;;;-3.35;59.97;101276.06;4374864;32;20173;-73
2024/01/11 01:09:04;;;;;;;44.72;26.02;;;;;;;-3.36;60.28;101269.16;4375334;32;20174;-73
2024/01/11 01:11:33;;;;;;;44.75;29.52;;;;;;;-3.50;60.81;101268.16;4373834;32;20161;-74
2024/01/11 01:14:02;;;;;;;43.22;26.37;;;;;;;-3.31;60.61;101253.66;4374993;32;20200;-74
2024/01/11 01:16:36;;;;;;;41.90;27.17;;;;;;;-3.10;59.78;101253.81;4374841;32;20173;-74
2024/01/11 01:19:05;;;;;;;41.95;30.25;;;;;;;-3.21;60.19;101255.44;4374936;32;20181;-73
2024/01/11 01:21:34;;;;;;;41.58;27.02;;;;;;;-3.15;60.19;101247.75;4374849;32;20149;-73
2024/01/11 01:24:04;;;;;;;37.95;27.62;;;;;;;-3.54;61.50;101256.87;4375076;32;20166;-73
2024/01/11 01:26:33;;;;;;;37.67;25.90;;;;;;;-3.48;61.55;101250.91;4373288;32;20155;-74
2024/01/11 01:29:02;;;;;;;41.05;26.77;;;;;;;-3.24;60.79;101248.53;4374864;32;20169;-73
2024/01/11 01:31:37;;;;;;;39.28;26.60;;;;;;;-3.14;60.11;101241.69;4374614;32;20173;-73
2024/01/11 01:34:08;;;;;;;41.97;26.98;;;;;;;-2.87;59.04;101238.44;4374719;32;20173;-73
2024/01/11 01:36:38;;;;;;;44.60;26.87;;;;;;;-3.46;60.95;101234.50;4374339;32;20787;-73
2024/01/11 01:39:08;;;;;;;39.00;28.00;;;;;;;-3.42;60.91;101232.81;4374926;32;20157;-73
2024/01/11 01:41:38;;;;;;;44.08;28.30;;;;;;;-3.43;61.23;101225.03;4374603;32;20162;-74
2024/01/11 01:44:07;;;;;;;48.08;32.60;;;;;;;-3.22;60.42;101222.63;4374479;32;20181;-73
2024/01/11 01:46:37;;;;;;;48.05;31.73;;;;;;;-3.48;60.90;101225.00;4374420;32;20169;-73
2024/01/11 01:49:08;;;;;;;49.95;31.08;;;;;;;-2.98;59.84;101220.19;4375308;32;20180;-73
2024/01/11 01:51:37;;;;;;;46.95;31.37;;;;;;;-2.97;59.69;101223.66;4376275;32;20161;-73
2024/01/11 01:54:07;;;;;;;44.25;32.60;;;;;;;-3.03;59.69;101211.53;4376678;32;20615;-73
2024/01/11 01:56:37;;;;;;;47.53;31.58;;;;;;;-2.91;59.63;101208.16;4376205;32;20161;-74
2024/01/11 01:59:06;;;;;;;49.08;31.62;;;;;;;-3.05;60.10;101207.19;4376695;32;20169;-73
2024/01/11 02:01:35;;;;;;;50.70;34.80;;;;;;;-3.15;60.45;101206.25;4376300;32;20165;-73
2024/01/11 02:04:06;;;;;;;50.53;32.80;;;;;;;-2.84;59.27;101202.16;4376208;32;20165;-73
2024/01/11 02:06:38;;;;;;;47.60;33.70;;;;;;;-2.85;59.16;101203.03;4376074;32;20173;-73
2024/01/11 02:09:08;;;;;;;47.67;34.75;;;;;;;-2.76;59.06;101210.84;4376520;32;20173;-73
2024/01/11 02:11:39;;;;;;;45.70;30.52;;;;;;;-2.57;58.31;101200.59;4376378;32;20538;-73
2024/01/11 02:14:08;;;;;;;46.92;34.17;;;;;;;-3.04;59.67;101198.56;4376526;32;20154;-73
2024/01/11 02:16:37;;;;;;;52.08;35.92;;;;;;;-2.86;58.88;101201.25;4376142;32;20169;-73
2024/01/11 02:19:14;;;;;;;55.97;34.90;;;;;;;-3.38;60.30;101192.25;4376287;32;20165;-73
2024/01/11 02:21:47;;;;;;;50.25;34.65;;;;;;;-3.42;60.68;101187.91;4376096;32;20165;-73
2024/01/11 02:24:17;;;;;;;50.38;33.58;;;;;;;-3.21;60.13;101182.87;4376504;32;20769;-73
2024/01/11 02:27:00;;;;;;;56.90;34.55;;;;;;;-3.30;60.32;101177.62;4376011;32;20177;-73
2024/01/11 02:29:30;;;;;;;49.97;35.08;;;;;;;-3.55;60.98;101174.84;4376163;32;20451;-73
2024/01/11 02:32:08;;;;;;;52.35;35.60;;;;;;;-3.30;60.30;101170.72;4376162;32;20156;-73
2024/01/11 02:34:37;;;;;;;58.20;34.47;;;;;;;-3.03;59.56;101171.78;4376075;32;20181;-73
2024/01/11 02:37:07;;;;;;;49.47;34.10;;;;;;;-3.00;59.24;101166.63;4374634;32;20161;-73
2024/01/11 02:39:38;;;;;;;48.63;33.50;;;;;;;-3.18;59.69;101169.94;4376068;32;20149;-73
2024/01/11 02:42:08;;;;;;;49.97;31.67;;;;;;;-2.88;58.67;101165.81;4376423;32;20158;-73
2024/01/11 02:44:44;;;;;;;42.65;32.45;;;;;;;-2.87;58.45;101168.41;4376081;32;20457;-73
2024/01/11 02:47:13;;;;;;;43.47;29.60;;;;;;;-2.82;58.21;101161.50;4375952;32;20145;-73
2024/01/11 02:49:47;;;;;;;50.33;30.55;;;;;;;-3.09;58.71;101158.75;4376048;32;20149;-73
2024/01/11 02:52:17;;;;;;;48.13;31.67;;;;;;;-2.86;58.26;101156.31;4375984;32;20447;-73
2024/01/11 02:54:47;;;;;;;44.85;32.55;;;;;;;-3.32;59.48;101156.91;4375806;32;20149;-73
2024/01/11 02:57:21;;;;;;;47.45;34.65;;;;;;;-3.80;61.06;101150.44;4376261;32;20154;-73
2024/01/11 02:59:50;;;;;;;55.45;33.83;;;;;;;-3.48;60.38;101148.13;4375422;32;20543;-73
2024/01/11 03:02:20;;;;;;;56.92;35.90;;;;;;;-3.54;60.89;101144.63;4375878;32;20181;-73
2024/01/11 03:04:49;;;;;;;55.42;37.17;;;;;;;-4.12;62.53;101152.69;4375621;32;20161;-73
2024/01/11 03:07:23;;;;;;;57.65;37.13;;;;;;;-3.91;62.65;101141.72;4375725;32;20153;-73
2024/01/11 03:09:54;;;;;;;53.53;34.33;;;;;;;-3.55;61.45;101141.16;4374515;32;20151;-73
2024/01/11 03:12:25;;;;;;;51.17;34.45;;;;;;;-3.49;61.01;101135.16;4375728;32;20176;-73
2024/01/11 03:14:55;;;;;;;56.05;35.95;;;;;;;-3.72;62.02;101133.25;4376061;32;20165;-73
2024/01/11 03:17:24;;;;;;;54.70;35.28;;;;;;;-3.28;60.82;101130.12;4375703;32;20443;-73
2024/01/11 03:19:54;;;;;;;59.92;37.33;;;;;;;-3.31;60.70;101130.09;4375799;32;20194;-73
2024/01/11 03:22:23;;;;;;;56.40;37.08;;;;;;;-3.17;60.46;101127.59;4375705;32;20575;-73
2024/01/11 03:24:56;;;;;;;59.58;38.17;;;;;;;-3.16;60.35;101121.56;4375646;32;20162;-73
2024/01/11 03:27:25;;;;;;;53.97;39.78;;;;;;;-2.99;59.75;101119.94;4375732;32;20137;-73
2024/01/11 03:29:54;;;;;;;58.78;38.53;;;;;;;-2.82;59.19;101113.97;4376160;32;20157;-73
2024/01/11 03:32:23;;;;;;;56.80;39.85;;;;;;;-3.33;60.41;101112.81;4375741;32;20189;-73
2024/01/11 03:34:53;;;;;;;59.97;37.00;;;;;;;-3.17;60.16;101106.00;4375727;32;20201;-73
2024/01/11 03:37:24;;;;;;;59.55;38.25;;;;;;;-3.73;61.76;101113.38;4375527;32;20161;-73
2024/01/11 03:39:55;;;;;;;54.33;37.63;;;;;;;-3.51;61.47;101110.97;4375679;32;20177;-73
2024/01/11 03:42:24;;;;;;;61.22;36.08;;;;;;;-3.17;60.22;101101.66;4375624;32;20146;-73
2024/01/11 03:44:53;;;;;;;54.78;37.17;;;;;;;-3.19;60.25;101103.41;4375919;32;20569;-73
2024/01/11 03:47:25;;;;;;;59.88;38.97;;;;;;;-3.13;60.10;101093.06;4375497;32;20173;-73
2024/01/11 03:49:55;;;;;;;61.47;37.80;;;;;;;-3.06;59.46;101083.59;4374182;32;20181;-73
2024/01/11 03:52:24;;;;;;;55.85;38.22;;;;;;;-2.97;59.08;101079.34;4375593;32;20572;-73
2024/01/11 03:54:53;;;;;;;50.90;37.20;;;;;;;-3.05;59.17;101086.22;4375433;32;20177;-73
2024/01/11 03:57:26;;;;;;;56.00;36.60;;;;;;;-3.09;59.36;101073.19;4375833;32;20558;-73
2024/01/11 03:59:55;;;;;;;53.50;36.83;;;;;;;-3.11;59.82;101080.13;4375477;32;20175;-73
2024/01/11 04:02:24;;;;;;;52.60;35.67;;;;;;;-3.32;60.17;101070.50;4375474;32;20181;-73
2024/01/11 04:04:54;;;;;;;62.70;37.45;;;;;;;-3.66;61.54;101067.66;4375441;32;20185;-73
2024/01/11 04:07:24;;;;;;;64.65;38.83;;;;;;;-3.28;60.36;101064.47;4375385;32;20366;-73
2024/01/11 04:09:54;;;;;;;52.55;37.83;;;;;;;-3.48;60.77;101070.41;4375436;32;20174;-73
2024/01/11 04:12:23;;;;;;;57.17;36.50;;;;;;;-3.34;60.70;101067.03;4374737;32;20857;-73
2024/01/11 04:14:53;;;;;;;57.95;36.28;;;;;;;-3.31;60.20;101069.62;4375671;32;20241;-73
2024/01/11 04:17:26;;;;;;;50.20;35.53;;;;;;;-3.32;60.10;101070.50;4375474;32;20171;-73
2024/01/11 04:19:56;;;;;;;53.78;35.88;;;;;;;-3.53;61.01;101074.66;4375385;32;20522;-73
2024/01/11 04:22:25;;;;;;;55.38;37.15;;;;;;;-3.38;60.47;101068.72;4375598;32;20170;-73
2024/01/11 04:24:54;;;;;;;55.10;36.33;;;;;;;-3.53;61.16;101068.63;4375246;32;20548;-73
2024/01/11 04:27:25;;;;;;;58.75;37.00;;;;;;;-4.05;62.50;101075.97;4375235;32;20353;-73
2024/01/11 04:29:56;;;;;;;57.62;38.05;;;;;;;-4.11;63.30;101070.75;4375694;32;20153;-73
2024/01/11 04:32:25;;;;;;;61.00;40.35;;;;;;;-3.94;62.77;101074.34;4375291;32;20494;-74
2024/01/11 04:34:54;;;;;;;53.92;36.78;;;;;;;-3.88;62.75;101074.41;4373850;32;20185;-73
2024/01/11 04:37:26;;;;;;;55.12;36.40;;;;;;;-3.92;63.18;101077.84;4375228;32;20351;-73
2024/01/11 04:39:55;;;;;;;54.08;35.53;;;;;;;-3.93;63.12;101083.84;4375218;32;20176;-73
2024/01/11 04:42:24;;;;;;;53.85;36.08;;;;;;;-3.51;61.60;101079.88;4375503;32;20201;-73
2024/01/11 04:44:53;;;;;;;52.25;35.80;;;;;;;-3.55;61.82;101088.47;4375523;32;20462;-73
2024/01/11 04:47:28;;;;;;;54.90;36.45;;;;;;;-3.63;62.20;101090.16;4375086;32;20525;-73
2024/01/11 04:50:01;;;;;;;57.85;38.00;;;;;;;-3.85;62.78;101081.31;4375195;32;20157;-73
2024/01/11 04:52:30;;;;;;;50.53;37.13;;;;;;;-3.62;62.13;101078.91;4375079;32;20193;-73
2024/01/11 04:54:59;;;;;;;64.53;38.20;;;;;;;-3.70;61.92;101081.44;4375000;32;20149;-73
2024/01/11 04:57:31;;;;;;;54.20;38.65;;;;;;;-3.36;61.20;101079.97;4375053;32;20157;-73
2024/01/11 05:00:01;;;;;;;52.10;34.88;;;;;;;-3.44;61.13;101068.69;4375449;32;20177;-73
2024/01/11 05:02:33;;;;;;;51.25;34.53;;;;;;;-3.53;61.31;101076.38;4375020;32;20441;-73
2024/01/11 05:05:03;;;;;;;48.75;33.00;;;;;;;-3.27;60.70;101068.78;4374913;32;20163;-73
2024/01/11 05:07:34;;;;;;;48.30;32.08;;;;;;;-3.19;60.58;101077.47;4373497;32;20192;-74
2024/01/11 05:10:05;;;;;;;53.63;33.50;;;;;;;-3.27;60.70;101074.84;4375007;32;20169;-73
2024/01/11 05:12:33;;;;;;;46.13;33.40;;;;;;;-3.52;61.67;101068.66;4374869;32;20149;-74
2024/01/11 05:15:07;;;;;;;44.33;30.98;;;;;;;-3.33;61.56;101068.75;4375362;32;20209;-73
2024/01/11 05:17:38;;;;;;;45.67;31.87;;;;;;;-3.38;61.46;101067.84;4374772;32;20173;-73
2024/01/11 05:20:08;;;;;;;46.50;31.58;;;;;;;-2.61;59.20;101058.72;4375009;32;20545;-73
2024/01/11 05:22:38;;;;;;;46.42;30.35;;;;;;;-2.88;59.79;101065.53;4374256;32;20149;-73
2024/01/11 05:25:08;;;;;;;44.65;31.12;;;;;;;-2.73;59.31;101063.00;4373874;32;20529;-73
2024/01/11 05:27:36;;;;;;;44.83;30.98;;;;;;;-2.89;59.48;101070.69;4374685;32;20185;-73
2024/01/11 05:30:07;;;;;;;46.88;30.23;;;;;;;-3.14;59.80;101067.13;4373758;32;20201;-73
2024/01/11 05:32:38;;;;;;;45.57;30.40;;;;;;;-2.93;59.41;101061.16;4373312;32;20166;-74
2024/01/11 05:35:10;;;;;;;46.85;33.05;;;;;;;-3.15;60.19;101063.69;4374905;32;20161;-73
2024/01/11 05:37:39;;;;;;;48.00;30.80;;;;;;;-3.11;60.27;101062.84;4374496;32;20466;-73
2024/01/11 05:40:09;;;;;;;46.08;32.72;;;;;;;-3.33;61.15;101068.75;4374593;32;20172;-73
2024/01/11 05:42:39;;;;;;;43.95;31.15;;;;;;;-3.13;60.57;101071.44;4373370;32;20182;-73
2024/01/11 05:45:08;;;;;;;48.58;31.12;;;;;;;-3.03;60.18;101068.06;4373577;32;20542;-74
2024/01/11 05:47:39;;;;;;;48.40;31.80;;;;;;;-3.46;61.06;101073.00;4374471;32;20774;-75
2024/01/11 05:50:10;;;;;;;46.53;30.37;;;;;;;-3.15;60.31;101073.19;4374589;32;20172;-74
2024/01/11 05:52:39;;;;;;;44.15;30.45;;;;;;;-3.16;60.65;101066.28;4374530;32;20170;-74
2024/01/11 05:55:08;;;;;;;50.67;31.58;;;;;;;-3.03;60.12;101062.88;4374325;32;20177;-75
2024/01/11 05:57:37;;;;;;;39.38;28.02;;;;;;;-3.09;60.37;101055.03;4374357;32;20158;-74
2024/01/11 06:00:07;;;;;;;40.88;28.98;;;;;;;-2.86;59.96;101068.13;4373356;32;20653;-74
2024/01/11 06:02:38;;;;;;;41.00;27.92;;;;;;;-2.53;59.11;101070.00;4374235;32;20157;-74
2024/01/11 06:05:09;;;;;;;42.33;27.85;;;;;;;-2.52;58.90;101069.97;4374194;32;20655;-74
2024/01/11 06:07:38;;;;;;;43.05;27.27;;;;;;;-2.46;58.40;101071.72;4374318;32;20165;-74
2024/01/11 06:10:08;;;;;;;44.45;29.02;;;;;;;-2.54;58.34;101078.63;4374189;32;20166;-74
2024/01/11 06:12:38;;;;;;;45.35;32.30;;;;;;;-2.67;58.74;101069.94;4374122;32;20178;-74
2024/01/11 06:15:07;;;;;;;45.28;31.00;;;;;;;-2.54;58.45;101071.69;4374720;32;20148;-74
2024/01/11 06:17:36;;;;;;;47.80;31.77;;;;;;;-2.49;58.27;101063.94;4374069;32;20169;-74
2024/01/11 06:20:09;;;;;;;43.28;31.95;;;;;;;-2.74;58.99;101071.63;4374153;32;20451;-74
2024/01/11 06:22:38;;;;;;;;;;;;;;;-2.69;59.01;101070.78;4374410;32;20158;-74
2024/01/11 06:25:10;;;;;;;42.77;29.73;;;;;;;-2.63;58.39;101063.91;4373978;32;20041;-74
2024/01/11 06:27:40;;;;;;;44.53;30.92;;;;;;;-2.81;59.13;101061.22;4373767;32;20185;-74
2024/01/11 06:30:13;;;;;;;59.63;33.97;;;;;;;-2.76;59.25;101051.75;4374336;32;20157;-74
2024/01/11 06:32:43;;;;;;;45.08;30.67;;;;;;;-2.60;58.85;101048.34;4373743;32;20181;-74
2024/01/11 06:35:13;;;;;;;43.53;30.40;;;;;;;-2.47;58.47;101054.41;4374814;32;20157;-74
2024/01/11 06:37:43;;;;;;;46.22;30.17;;;;;;;-2.51;58.95;101050.94;4376075;32;20154;-74
2024/01/11 06:40:12;;;;;;;49.58;31.20;;;;;;;-2.69;59.58;101050.03;4376046;32;20166;-74
2024/01/11 06:42:41;;;;;;;46.70;31.45;;;;;;;-2.55;59.24;101050.94;4375891;32;20486;-74
2024/01/11 06:45:10;;;;;;;48.87;31.92;;;;;;;-2.51;59.08;101055.28;4376222;32;20174;-74
2024/01/11 06:47:40;;;;;;;51.37;29.45;;;;;;;-2.51;59.38;101047.50;4375833;32;20174;-74
2024/01/11 06:50:09;;;;;;;45.05;30.75;;;;;;;-2.47;59.44;101044.91;4375865;32;20150;-75
2024/01/11 06:52:40;;;;;;;45.70;31.02;;;;;;;-2.45;59.49;101047.53;4375920;32;20193;-74
2024/01/11 06:55:15;;;;;;;42.92;29.80;;;;;;;-2.43;59.37;101044.91;4375678;32;20165;-74
2024/01/11 06:57:47;;;;;;;47.20;30.70;;;;;;;-2.36;59.49;101044.06;4375660;32;20157;-74
2024/01/11 07:00:17;;;;;;;48.13;31.60;;;;;;;-2.74;61.27;101045.69;4376490;32;20416;-75
2024/01/11 07:02:46;;;;;;;49.53;32.88;;;;;;;-2.22;60.50;101050.13;4375370;32;20226;-74
2024/01/11 07:05:15;;;;;;;44.15;32.42;;;;;;;-2.14;59.65;101044.94;4375704;32;20161;-74
2024/01/11 07:07:47;;;;;;;51.72;33.55;;;;;;;-1.71;58.71;101037.16;4375856;32;20169;-74
2024/01/11 07:10:16;;;;;;;49.40;32.08;;;;;;;-1.34;58.08;101044.06;4375891;32;20169;-74
2024/01/11 07:12:47;;;;;;;51.83;33.95;;;;;;;-0.93;56.54;101036.97;4375753;32;20165;-74
2024/01/11 07:15:17;;;;;;;48.20;31.17;;;;;;;-0.68;55.62;101032.53;4376147;32;20192;-74
2024/01/11 07:17:46;;;;;;;48.83;32.72;;;;;;;-0.60;55.52;101028.12;4375640;32;20467;-74
2024/01/11 07:20:17;;;;;;;48.03;33.20;;;;;;;-0.91;56.44;101043.03;4375790;32;20522;-73
2024/01/11 07:22:47;;;;;;;44.03;31.77;;;;;;;-1.50;58.22;101048.41;4375787;32;20189;-74
2024/01/11 07:25:17;;;;;;;50.47;33.83;;;;;;;-1.37;58.63;101031.06;4375885;32;20172;-75
2024/01/11 07:27:47;;;;;;;51.67;35.03;;;;;;;-1.70;59.82;101037.19;4374544;32;20181;-74
2024/01/11 07:30:17;;;;;;;47.90;32.10;;;;;;;-1.43;59.20;101038.84;4361159;33;20165;-74
2024/01/11 07:32:46;;;;;;;53.22;35.05;;;;;;;-1.71;60.57;101040.63;4359081;33;20185;-74
2024/01/11 07:35:16;;;;;;;52.22;35.22;;;;;;;-2.12;62.11;101030.25;4360822;32;20181;-74
2024/01/11 07:37:49;;;;;;;51.65;35.25;;;;;;;-2.07;62.38;101029.38;4360675;32;20170;-74
2024/01/11 07:40:18;;;;;;;50.10;33.60;;;;;;;-1.79;61.82;101038.03;4360730;32;20158;-74
2024/01/11 07:42:49;;;;;;;52.00;36.15;;;;;;;-1.46;60.91;101044.06;4360698;32;20166;-74
2024/01/11 07:45:19;;;;;;;56.13;36.65;;;;;;;-1.53;61.30;101037.16;4360887;32;20447;-74
2024/01/11 07:47:49;;;;;;;57.35;34.78;;;;;;;-1.56;61.39;101031.94;4359650;32;20235;-74
2024/01/11 07:50:18;;;;;;;50.47;31.90;;;;;;;-1.00;60.03;101029.19;4360686;32;20181;-74
2024/01/11 07:52:49;;;;;;;51.60;34.30;;;;;;;-0.53;58.59;101028.09;4360668;32;20153;-74
2024/01/11 07:55:23;;;;;;;54.30;35.72;;;;;;;-0.53;58.42;101022.03;4360580;32;20162;-74
2024/01/11 07:57:53;;;;;;;55.70;31.52;;;;;;;-0.03;57.75;101020.81;4360625;32;20177;-74
2024/01/11 08:00:22;;;;;;;47.75;34.13;;;;;;;0.58;55.63;101011.56;4360454;32;20145;-73
2024/01/11 08:02:51;;;;;;;43.42;28.55;;;;;;;1.31;54.00;101004.62;4360961;33;20154;-74
2024/01/11 08:05:21;;;;;;;46.30;29.12;;;;;;;1.80;51.99;101011.72;4360632;32;20181;-74
2024/01/11 08:07:52;;;;;;;48.22;31.48;;;;;;;2.70;50.52;101003.19;4360647;32;20170;-74
2024/01/11 08:10:21;;;;;;;44.60;29.02;;;;;;;3.24;48.26;100998.59;4360581;32;20150;-74
2024/01/11 08:12:50;;;;;;;41.35;28.42;;;;;;;4.07;46.35;100997.53;4360398;32;20173;-75
2024/01/11 08:15:20;;;;;;;45.60;29.45;;;;;;;5.11;44.12;100990.34;4360758;33;20449;-75
2024/01/11 08:17:49;;;;;;;42.17;28.05;;;;;;;6.02;41.75;100980.53;4359077;33;20182;-74
2024/01/11 08:20:19;;;;;;;39.85;26.58;;;;;;;6.70;39.81;100960.59;4360569;32;20169;-73
2024/01/11 08:22:48;;;;;;;41.40;27.30;;;;;;;7.11;39.13;100966.97;4360482;32;20158;-73
2024/01/11 08:25:19;;;;;;;37.38;23.67;;;;;;;7.37;37.81;100958.06;4360494;32;20154;-73
2024/01/11 08:27:49;;;;;;;42.62;27.85;;;;;;;8.85;46.62;100955.37;4361004;32;20523;-73
2024/01/11 08:30:18;;;;;;;37.65;26.30;;;;;;;9.79;35.10;100952.69;4361293;33;20554;-74
2024/01/11 08:32:47;;;;;;;35.40;25.95;;;;;;;10.10;33.08;100946.72;4360336;32;20551;-74
2024/01/11 08:35:21;;;;;;;33.30;26.60;;;;;;;9.97;32.84;100931.50;4360815;32;20566;-72
2024/01/11 08:37:50;;;;;;;36.72;27.87;;;;;;;10.24;32.38;100932.75;4360596;32;20153;-72
2024/01/11 08:40:21;;;;;;;39.88;27.80;;;;;;;10.00;32.67;100950.75;4360742;32;20463;-72
2024/01/11 08:42:50;;;;;;;39.42;28.12;;;;;;;9.85;33.02;100943.56;4360757;32;20173;-72
2024/01/11 08:45:19;;;;;;;38.03;26.15;;;;;;;9.69;32.73;100939.97;4360939;32;20154;-72
2024/01/11 08:47:49;;;;;;;42.53;26.48;;;;;;;9.96;32.62;100941.25;4359367;33;20174;-72
2024/01/11 08:50:20;;;;;;;34.40;25.30;;;;;;;10.24;32.45;100935.41;4360997;32;20470;-74
2024/01/11 08:52:54;;;;;;;36.28;26.85;;;;;;;10.58;31.44;100929.25;4360878;32;20427;-72
2024/01/11 08:55:26;;;;;;;37.28;25.65;;;;;;;9.79;32.82;100942.09;4360971;32;20531;-73
2024/01/11 08:57:56;;;;;;;36.85;25.35;;;;;;;10.10;32.04;100940.56;4361079;32;20178;-72
2024/01/11 09:00:25;;;;;;;35.42;25.50;;;;;;;10.05;32.65;100937.28;4361502;32;20176;-72
2024/01/11 09:02:54;;;;;;;36.53;25.48;;;;;;;10.17;32.44;100934.00;4361770;33;20178;-72
2024/01/11 09:05:24;;;;;;;34.92;25.45;;;;;;;10.43;32.07;100923.91;4361538;32;20150;-72
2024/01/11 09:07:53;;;;;;;41.03;26.52;;;;;;;9.54;32.89;100931.84;4361490;32;20161;-72
2024/01/11 09:10:22;;;;;;;34.22;25.85;;;;;;;9.76;32.93;100936.94;4361930;32;20157;-72
2024/01/11 09:12:53;;;;;;;35.63;26.12;;;;;;;9.60;33.36;100939.47;4361565;32;20158;-72
2024/01/11 09:15:22;;;;;;;37.63;26.83;;;;;;;9.64;33.38;100939.34;4361115;32;20538;-72
2024/01/11 09:17:51;;;;;;;40.65;28.55;;;;;;;9.24;34.14;100928.03;4361704;33;20812;-72
2024/01/11 09:20:22;;;;;;;36.17;26.60;;;;;;;9.24;34.80;100935.97;4361625;32;20162;-72
2024/01/11 09:22:51;;;;;;;36.33;28.10;;;;;;;9.18;34.58;100930.94;4361564;32;20157;-72
2024/01/11 09:25:20;;;;;;;38.15;28.75;;;;;;;8.60;35.26;100923.91;4361441;32;20162;-72
2024/01/11 09:27:49;;;;;;;37.63;26.02;;;;;;;8.52;35.65;100920.75;4361913;32;20813;-72
2024/01/11 09:30:23;;;;;;;35.72;25.15;;;;;;;8.10;36.88;100921.66;4361151;32;20161;-72
2024/01/11 09:32:52;;;;;;;33.67;23.55;;;;;;;8.48;35.56;100925.31;4361704;33;20145;-72
2024/01/11 09:35:22;;;;;;;31.83;23.08;;;;;;;8.61;35.09;100923.00;4361552;32;20169;-72
2024/01/11 09:37:51;;;;;;;34.17;22.40;;;;;;;9.02;34.32;100917.59;4361005;32;20154;-72
2024/01/11 09:40:22;;;;;;;41.37;26.95;;;;;;;9.01;33.95;100907.94;4360728;32;20450;-72
2024/01/11 09:42:52;;;;;;;34.33;22.17;;;;;;;9.50;33.36;100895.91;4360144;32;20153;-72
2024/01/11 09:45:23;;;;;;;29.87;22.17;;;;;;;9.63;32.41;100893.50;4358445;32;20538;-72
2024/01/11 09:47:54;;;;;;;30.98;21.62;;;;;;;9.71;32.74;100880.75;4360161;33;20162;-71
2024/01/11 09:50:27;;;;;;;36.45;22.55;;;;;;;10.28;32.11;100867.25;4360063;32;20173;-71
2024/01/11 09:52:56;;;;;;;27.48;20.73;;;;;;;9.75;32.16;100855.84;4360218;32;20216;-71
2024/01/11 09:55:25;;;;;;;31.33;21.65;;;;;;;9.64;32.51;100854.66;4360205;32;20165;-71
2024/01/11 09:58:00;;;;;;;;;;;;;;;9.07;33.76;100853.00;4360639;32;20544;-71
2024/01/11 10:00:31;;;;;;;32.88;21.55;;;;;;;9.21;33.67;100849.69;4360025;32;20041;-71
2024/01/11 10:03:02;;;;;;;27.65;20.35;;;;;;;9.17;33.58;100844.63;4360283;33;20181;-72
2024/01/11 10:05:35;;;;;;;27.42;19.10;;;;;;;9.12;33.41;100844.84;4359978;32;20177;-71
2024/01/11 10:08:05;;;;;;;32.22;20.35;;;;;;;8.30;34.69;100833.66;4359943;32;20515;-71
2024/01/11 10:10:34;;;;;;;27.30;20.20;;;;;;;8.50;34.16;100831.00;4360921;32;20527;-71
2024/01/11 10:13:04;;;;;;;32.03;20.42;;;;;;;9.08;33.36;100841.50;4361672;32;20153;-71
2024/01/11 10:15:34;;;;;;;30.27;22.45;;;;;;;9.14;33.29;100832.41;4361759;32;20177;-71
2024/01/11 10:18:04;;;;;;;31.98;22.08;;;;;;;9.18;33.84;100833.09;4361938;33;20197;-71
2024/01/11 10:20:35;;;;;;;34.38;24.63;;;;;;;9.71;33.30;100826.97;4361758;32;20162;-71
2024/01/11 10:23:05;;;;;;;32.28;22.65;;;;;;;9.71;33.38;100821.66;4361572;32;20166;-71
2024/01/11 10:25:36;;;;;;;31.95;22.33;;;;;;;9.99;33.21;100807.88;4361545;32;20527;-71
2024/01/11 10:28:08;;;;;;;29.05;21.42;;;;;;;9.62;33.28;100809.72;4361464;32;20157;-71
2024/01/11 10:30:40;;;;;;;33.10;21.40;;;;;;;9.63;33.13;100790.31;4361283;32;20428;-71
2024/01/11 10:33:10;;;;;;;31.37;21.23;;;;;;;9.80;33.23;100794.72;4361585;33;20161;-71
2024/01/11 10:35:40;;;;;;;29.48;22.00;;;;;;;9.84;32.82;100793.63;4361354;32;20847;-72
2024/01/11 10:38:11;;;;;;;32.90;23.33;;;;;;;9.42;33.20;100786.94;4362133;32;20558;-72
2024/01/11 10:40:42;;;;;;;28.40;21.58;;;;;;;9.59;33.18;100796.69;4361346;32;20150;-72
2024/01/11 10:43:13;;;;;;;25.58;18.95;;;;;;;9.60;33.81;100798.38;4361300;32;20150;-72
2024/01/11 10:45:47;;;;;;;27.20;20.35;;;;;;;9.85;33.81;100790.03;4361353;32;20170;-72
2024/01/11 10:48:17;;;;;;;30.10;23.10;;;;;;;9.66;33.92;100781.34;4361676;33;20173;-72
2024/01/11 10:50:59;;;;;;;27.20;17.95;;;;;;;9.73;33.19;100777.44;4361078;32;20181;-72
2024/01/11 10:53:37;;;;;;;32.20;20.33;;;;;;;9.47;33.59;100777.00;4361282;32;20193;-73
2024/01/11 10:56:07;;;;;;;25.67;18.55;;;;;;;9.90;32.84;100777.44;4361089;32;20166;-72
2024/01/11 10:58:36;;;;;;;28.10;20.58;;;;;;;9.40;33.58;100786.16;4361402;32;20165;-72
2024/01/11 11:01:07;;;;;;;26.17;18.95;;;;;;;9.69;33.20;100775.87;4361176;32;20170;-72
2024/01/11 11:03:39;;;;;;;35.37;19.27;;;;;;;9.79;32.92;100771.84;4361257;32;20189;-72
2024/01/11 11:06:10;;;;;;;25.17;18.98;;;;;;;9.51;32.97;100761.81;4361402;33;20197;-72
2024/01/11 11:08:41;;;;;;;25.12;18.00;;;;;;;9.10;33.76;100759.44;4361083;32;20170;-72
2024/01/11 11:11:16;;;;;;;25.88;18.02;;;;;;;9.13;33.81;100748.72;4361145;32;20177;-72
2024/01/11 11:13:50;;;;;;;26.60;19.23;;;;;;;8.49;34.41;100742.13;4361030;32;20174;-72
2024/01/11 11:16:21;;;;;;;27.40;18.17;;;;;;;8.36;34.55;100740.97;4361040;32;20573;-72
2024/01/11 11:18:55;;;;;;;28.17;17.52;;;;;;;8.77;34.44;100738.19;4360989;32;20170;-72
2024/01/11 11:21:24;;;;;;;20.50;15.63;;;;;;;8.63;33.82;100736.19;4360854;32;20173;-72
2024/01/11 11:23:56;;;;;;;23.50;17.40;;;;;;;8.32;33.82;100726.22;4361208;33;20162;-72
2024/01/11 11:26:27;;;;;;;25.90;19.15;;;;;;;8.86;33.72;100729.78;4360770;32;20173;-72